Accueil
METAR-TAF:

METAR-TAF

Aéroports :

Aéroport de Milan Malpensa

Milan, Italie

latitude: 45-37N, longitude: 008-44E, altitude: 234 m

Observation

Le bulletin a été fait il y a 21 minutes, à 13:50 UTC
Vent 2 kt de direction variable
Température 2°C
Humidité 100%
Pression 1024 hPa
Visibilité: 1400 m
Nuages fragmentés à une hauteur de 200 ft
brume

METAR: LIMC 271350Z VRB02KT 1400 R35R/P1500N R17L/P1500N R35L/1100N BR BKN002 02/02 Q1024 BECMG 2000

Heure: 15:11 (14:11 UTC)

Prévision

Le bulletin a été fait il y a 3 heures et 11 minutes, à 11:00 UTC
Prévision valable du 27 à 12 UTC au 28 à 18 UTC
Vent 5 kt de direction variable
Visibilité: 0400 m
Nuages fragmentés à une hauteur de 200 ft
brouillard
Temporairement
du 27 à 13 UTC au 27 à 18 UTC
Visibilité: 0800 m
Temporairement
du 28 à 03 UTC au 28 à 08 UTC
Visibilité: 1200 m
bancs de brouillard

TAF: LIMC 271100Z 2712/2818 VRB05KT 0400 FG BKN002 TEMPO 2713/2718 0800 TEMPO 2803/2808 1200 BCFG

Observations et prévisions météorologiques de plus de 4000 aéroports (messages METAR et TAF).

Les stations disponibles sont représentées par des disques jaunes et rouges sur la carte.

Passer la souris dessus pour voir le nom de la station.

Cliquer dessus pour voir les observations et prévisions météorologiques.

Pour changer de carte: cliquez sur les boutons verts avec une croix noire pour zoomer, sur le bouton vert avec un tiret pour effectuer un zoom arrière, ou sur les flèches vertes pour les cartes adjacentes.


METAR-TAF: